createdAt,value
2019-05-15T00:00:51.510Z,4.56
2019-05-15T00:03:21.333Z,4.62
2019-05-15T00:05:51.120Z,4.63
2019-05-15T00:08:20.906Z,4.53
2019-05-15T00:10:50.701Z,4.52
2019-05-15T00:13:20.440Z,4.63
2019-05-15T00:15:50.209Z,4.54
2019-05-15T00:18:19.991Z,4.59
2019-05-15T00:20:49.915Z,4.53
2019-05-15T00:23:19.661Z,4.48
2019-05-15T00:25:51.104Z,4.53
2019-05-15T00:28:20.979Z,4.55
2019-05-15T00:30:50.750Z,4.61
2019-05-15T00:33:20.561Z,4.59
2019-05-15T00:35:50.584Z,4.48
2019-05-15T00:38:20.323Z,4.51
2019-05-15T00:40:50.066Z,4.50
2019-05-15T00:43:19.836Z,4.57
2019-05-15T00:45:50.390Z,4.58
2019-05-15T00:48:20.602Z,4.53
2019-05-15T00:50:50.996Z,4.67
2019-05-15T00:53:21.990Z,4.61
2019-05-15T00:55:52.166Z,4.65
2019-05-15T00:58:22.403Z,4.68
2019-05-15T01:00:52.187Z,4.60
2019-05-15T01:03:21.979Z,4.67
2019-05-15T01:05:51.639Z,4.62
2019-05-15T01:08:21.419Z,4.53
2019-05-15T01:10:51.186Z,4.71
2019-05-15T01:13:22.205Z,4.76
2019-05-15T01:15:51.982Z,4.72
2019-05-15T01:18:21.757Z,4.71
2019-05-15T01:20:51.697Z,4.78
2019-05-15T01:23:21.434Z,4.79
2019-05-15T01:25:51.413Z,4.81
2019-05-15T01:28:21.177Z,4.74
2019-05-15T01:30:50.954Z,4.62
2019-05-15T01:33:23.171Z,4.69
2019-05-15T01:35:53.832Z,4.58
2019-05-15T01:38:23.571Z,4.80
2019-05-15T01:40:53.496Z,4.86
2019-05-15T01:43:24.189Z,4.85
2019-05-15T01:45:53.930Z,4.78
2019-05-15T01:48:23.716Z,4.76
2019-05-15T01:50:54.688Z,4.75
2019-05-15T01:53:25.006Z,4.69
2019-05-15T01:55:54.948Z,4.77
2019-05-15T01:58:25.934Z,4.82
2019-05-15T02:00:58.963Z,4.76
2019-05-15T02:03:29.160Z,4.78
2019-05-15T02:05:58.872Z,4.87
2019-05-15T02:08:28.708Z,4.85
2019-05-15T02:10:59.186Z,4.81
2019-05-15T02:13:28.950Z,4.78
2019-05-15T02:15:59.219Z,4.90
2019-05-15T02:18:29.055Z,4.90
2019-05-15T02:20:59.230Z,4.85
2019-05-15T02:23:28.948Z,4.88
2019-05-15T02:26:02.183Z,4.77
2019-05-15T02:28:31.972Z,4.77
2019-05-15T02:31:01.767Z,4.66
2019-05-15T02:33:31.733Z,4.80
2019-05-15T02:36:01.475Z,4.91
2019-05-15T02:38:31.207Z,4.76
2019-05-15T02:41:01.023Z,4.74
2019-05-15T02:43:30.900Z,4.80
2019-05-15T02:46:01.150Z,4.81
2019-05-15T02:48:32.440Z,4.73
2019-05-15T02:51:02.327Z,4.76
2019-05-15T02:53:32.177Z,4.78
2019-05-15T02:56:02.533Z,4.76
2019-05-15T02:58:32.415Z,4.81
2019-05-15T03:01:02.307Z,4.86
2019-05-15T03:03:32.445Z,4.79
2019-05-15T03:06:03.176Z,4.72
2019-05-15T03:08:33.054Z,4.78
2019-05-15T03:11:02.836Z,4.84
2019-05-15T03:13:32.510Z,4.86
2019-05-15T03:16:02.259Z,4.81
2019-05-15T03:18:32.332Z,4.84
2019-05-15T03:21:03.200Z,4.77
2019-05-15T03:23:33.563Z,4.86
2019-05-15T03:26:04.626Z,4.82
2019-05-15T03:28:34.840Z,4.87
2019-05-15T03:31:26.267Z,4.84
2019-05-15T03:33:43.926Z,4.89
2019-05-15T03:36:13.094Z,4.84
2019-05-15T03:38:39.846Z,4.84
2019-05-15T03:41:10.848Z,4.85
2019-05-15T03:43:41.036Z,4.88
2019-05-15T03:46:13.270Z,4.99
2019-05-15T03:48:43.929Z,4.94
2019-05-15T03:51:13.841Z,5.00
2019-05-15T03:53:43.602Z,4.92
2019-05-15T03:56:13.384Z,5.00
2019-05-15T03:58:43.159Z,4.93
2019-05-15T04:01:28.337Z,4.89
2019-05-15T04:03:44.415Z,5.05
2019-05-15T04:06:14.151Z,4.82
2019-05-15T04:08:43.939Z,4.98
2019-05-15T04:11:13.726Z,4.97
2019-05-15T04:13:43.471Z,5.03
2019-05-15T04:16:13.270Z,5.03
2019-05-15T04:18:43.013Z,5.14
2019-05-15T04:21:12.760Z,5.07
2019-05-15T04:23:42.548Z,5.07
2019-05-15T04:26:12.364Z,5.07
2019-05-15T04:28:42.417Z,5.02
2019-05-15T04:31:12.185Z,5.03
2019-05-15T04:33:42.009Z,4.91
2019-05-15T04:36:12.595Z,4.99
2019-05-15T04:38:42.374Z,5.09
2019-05-15T04:41:12.198Z,4.94
2019-05-15T04:43:45.168Z,4.99
2019-05-15T04:46:13.778Z,5.00
2019-05-15T04:48:44.619Z,5.08
2019-05-15T04:51:15.126Z,5.24
2019-05-15T04:53:45.139Z,5.25
2019-05-15T04:56:14.925Z,5.22
2019-05-15T04:58:50.703Z,5.23
2019-05-15T05:01:19.931Z,5.21
2019-05-15T05:03:50.857Z,5.14
2019-05-15T05:06:20.845Z,5.12
2019-05-15T05:08:50.968Z,5.20
2019-05-15T05:11:24.145Z,5.05
2019-05-15T05:13:54.003Z,5.20
2019-05-15T05:16:24.080Z,5.12
2019-05-15T05:18:53.898Z,5.10
2019-05-15T05:21:23.768Z,5.19
2019-05-15T05:23:53.371Z,5.12
2019-05-15T05:26:23.122Z,5.12
2019-05-15T05:28:52.881Z,5.13
2019-05-15T05:31:22.619Z,5.08
2019-05-15T05:33:52.394Z,5.26
2019-05-15T05:36:23.752Z,5.58
2019-05-15T05:38:53.764Z,5.63
2019-05-15T05:41:23.619Z,5.78
2019-05-15T05:43:53.353Z,5.83
2019-05-15T05:46:23.594Z,5.90
2019-05-15T05:48:53.320Z,5.98
2019-05-15T05:51:23.236Z,6.07
2019-05-15T05:53:53.147Z,6.04
2019-05-15T05:56:22.908Z,6.05
2019-05-15T05:58:53.082Z,6.15
2019-05-15T06:01:23.175Z,6.17
2019-05-15T06:03:52.952Z,6.37
2019-05-15T06:06:22.970Z,6.37
2019-05-15T06:08:53.020Z,6.49
2019-05-15T06:11:23.271Z,6.41
2019-05-15T06:13:53.376Z,6.30
2019-05-15T06:16:23.480Z,6.22
2019-05-15T06:18:53.660Z,6.00
2019-05-15T06:21:23.395Z,6.03
2019-05-15T06:23:56.058Z,5.99
2019-05-15T06:26:25.370Z,5.85
2019-05-15T06:28:55.116Z,5.86
2019-05-15T06:31:27.980Z,5.86
2019-05-15T06:33:58.169Z,5.85
2019-05-15T06:36:28.925Z,5.68
2019-05-15T06:38:59.166Z,5.74
2019-05-15T06:41:29.200Z,5.77
2019-05-15T06:43:59.758Z,5.79
2019-05-15T06:46:29.534Z,5.87
2019-05-15T06:48:59.343Z,6.13
2019-05-15T06:51:29.088Z,6.19
2019-05-15T06:53:58.852Z,6.16
2019-05-15T06:56:28.975Z,6.16
2019-05-15T06:58:59.015Z,6.34
2019-05-15T07:01:29.446Z,6.35
2019-05-15T07:03:59.951Z,6.39
2019-05-15T07:06:29.833Z,6.34
2019-05-15T07:08:59.567Z,6.54
2019-05-15T07:11:29.471Z,6.50
2019-05-15T07:13:59.220Z,6.74
2019-05-15T07:16:28.979Z,6.83
2019-05-15T07:18:59.779Z,6.82
2019-05-15T07:21:29.658Z,6.71
2019-05-15T07:23:59.539Z,6.71
2019-05-15T07:26:29.327Z,6.58
2019-05-15T07:28:59.739Z,6.69
2019-05-15T07:31:29.873Z,6.81
2019-05-15T07:34:02.227Z,6.79
2019-05-15T07:36:32.122Z,6.73
2019-05-15T07:39:02.595Z,6.73
2019-05-15T07:41:32.392Z,6.76
2019-05-15T07:44:02.346Z,6.70
2019-05-15T07:46:32.961Z,6.69
2019-05-15T07:49:02.861Z,6.50
2019-05-15T07:51:33.214Z,6.72
2019-05-15T07:54:02.949Z,7.05
2019-05-15T07:56:32.757Z,7.14
2019-05-15T07:59:02.554Z,7.36
2019-05-15T08:01:32.671Z,7.43
2019-05-15T08:04:21.764Z,7.47
2019-05-15T08:06:39.878Z,7.38
2019-05-15T08:09:09.702Z,7.35
2019-05-15T08:11:39.595Z,7.41
2019-05-15T08:14:09.340Z,7.48
2019-05-15T08:16:39.675Z,7.48
2019-05-15T08:19:09.612Z,7.56
2019-05-15T08:21:39.444Z,7.53
2019-05-15T08:24:09.241Z,7.60
2019-05-15T08:26:44.859Z,7.73
2019-05-15T08:29:10.819Z,7.70
2019-05-15T08:31:40.617Z,7.75
2019-05-15T08:34:16.035Z,7.83
2019-05-15T08:36:42.078Z,7.84
2019-05-15T08:39:11.929Z,7.93
2019-05-15T08:41:41.719Z,7.91
2019-05-15T08:44:11.628Z,7.96
2019-05-15T08:46:44.228Z,7.96
2019-05-15T08:49:13.033Z,7.96
2019-05-15T08:51:42.784Z,7.86
2019-05-15T08:54:12.630Z,7.83
2019-05-15T08:56:42.818Z,7.77
2019-05-15T08:59:13.463Z,7.79
2019-05-15T09:01:43.228Z,7.79
2019-05-15T09:04:30.191Z,7.82
2019-05-15T09:06:49.647Z,7.76
2019-05-15T09:09:19.496Z,7.82
2019-05-15T09:11:49.905Z,7.95
2019-05-15T09:14:20.884Z,7.98
2019-05-15T09:16:50.638Z,7.92
2019-05-15T09:19:20.499Z,7.91
2019-05-15T09:21:50.241Z,7.98
2019-05-15T09:24:21.518Z,8.18
2019-05-15T09:26:53.640Z,8.41
2019-05-15T09:29:25.668Z,8.57
2019-05-15T09:31:58.987Z,8.70
2019-05-15T09:34:46.733Z,8.77
2019-05-15T09:37:03.396Z,8.85
2019-05-15T09:39:33.156Z,9.02
2019-05-15T09:42:08.340Z,9.10
2019-05-15T09:44:39.187Z,9.06
2019-05-15T09:47:09.290Z,8.82
2019-05-15T09:49:40.892Z,8.90
2019-05-15T09:52:10.629Z,8.98
2019-05-15T09:54:41.299Z,9.14
2019-05-15T09:57:12.986Z,9.03
2019-05-15T09:59:42.765Z,9.12
2019-05-15T10:02:13.494Z,9.18
2019-05-15T10:04:43.140Z,9.26
2019-05-15T10:07:13.192Z,9.31
2019-05-15T10:09:43.764Z,9.29
2019-05-15T10:12:18.242Z,9.48
2019-05-15T10:14:49.161Z,9.53
2019-05-15T10:17:19.363Z,9.65
2019-05-15T10:19:49.089Z,9.76
2019-05-15T10:22:23.763Z,9.97
2019-05-15T10:24:55.139Z,9.86
2019-05-15T10:27:25.228Z,9.83
2019-05-15T10:29:55.711Z,9.91
2019-05-15T10:32:28.779Z,10.10
2019-05-15T10:34:58.748Z,10.21
2019-05-15T10:37:28.976Z,10.21
2019-05-15T10:39:59.308Z,10.15
2019-05-15T10:42:29.764Z,9.96
2019-05-15T10:44:59.550Z,9.87
2019-05-15T10:47:29.981Z,9.91
2019-05-15T10:50:02.164Z,9.70
2019-05-15T10:52:34.367Z,9.50
2019-05-15T10:55:05.023Z,9.50
2019-05-15T10:57:34.807Z,9.42
2019-05-15T11:00:07.905Z,9.43
2019-05-15T11:02:39.472Z,9.31
2019-05-15T11:05:10.552Z,9.32
2019-05-15T11:07:40.371Z,9.23
2019-05-15T11:10:10.853Z,9.35
2019-05-15T11:12:40.559Z,9.27
2019-05-15T11:15:12.828Z,9.11
2019-05-15T11:17:42.778Z,9.07
2019-05-15T11:20:14.385Z,9.02
2019-05-15T11:22:44.133Z,8.98
2019-05-15T11:25:16.201Z,8.93
2019-05-15T11:27:48.194Z,8.93
2019-05-15T11:30:19.231Z,8.81
2019-05-15T11:32:49.479Z,8.82
2019-05-15T11:35:19.687Z,8.92
2019-05-15T11:37:56.754Z,8.82
2019-05-15T11:40:22.793Z,8.85
2019-05-15T11:42:52.558Z,8.78
2019-05-15T11:45:22.447Z,8.82
2019-05-15T11:47:52.332Z,8.84
2019-05-15T11:50:23.285Z,8.88
2019-05-15T11:52:53.061Z,8.85
2019-05-15T11:55:22.838Z,9.08
2019-05-15T11:57:55.610Z,9.11
2019-05-15T12:00:27.179Z,9.05
2019-05-15T12:02:58.440Z,8.79
2019-05-15T12:05:29.945Z,8.55
2019-05-15T12:07:59.667Z,8.71
2019-05-15T12:10:30.299Z,8.66
2019-05-15T12:13:00.268Z,8.56
2019-05-15T12:15:30.026Z,8.58
2019-05-15T12:18:00.136Z,8.64
2019-05-15T12:20:30.387Z,8.65
2019-05-15T12:23:00.309Z,8.70
2019-05-15T12:25:31.961Z,8.74
2019-05-15T12:28:01.856Z,8.80
2019-05-15T12:30:33.575Z,8.91
2019-05-15T12:33:04.389Z,8.87
2019-05-15T12:35:39.213Z,8.68
2019-05-15T12:38:10.049Z,8.57
2019-05-15T13:01:12.752Z,8.08
2019-05-15T13:03:32.018Z,8.06
2019-05-15T13:06:01.794Z,7.94
2019-05-15T13:08:31.702Z,7.91
2019-05-15T13:11:01.955Z,7.83
2019-05-15T13:13:31.786Z,7.77
2019-05-15T13:16:03.804Z,7.88
2019-05-15T13:18:34.643Z,7.73
2019-05-15T13:21:04.490Z,7.79
2019-05-15T13:23:34.501Z,7.72
2019-05-15T13:26:04.371Z,7.61
2019-05-15T13:28:35.851Z,7.62
2019-05-15T13:31:05.955Z,7.73
2019-05-15T13:33:35.647Z,7.68
2019-05-15T13:36:08.718Z,7.67
2019-05-15T13:38:39.381Z,7.78
2019-05-15T13:41:09.618Z,7.63
2019-05-15T13:43:42.050Z,7.71
2019-05-15T13:46:12.304Z,7.80
2019-05-15T13:48:42.036Z,7.77
2019-05-15T13:51:11.797Z,7.75
2019-05-15T13:53:41.482Z,7.67
2019-05-15T13:56:11.541Z,7.64
2019-05-15T13:58:41.683Z,7.72
2019-05-15T14:01:11.459Z,7.84
2019-05-15T14:03:41.685Z,7.81
2019-05-15T14:06:12.057Z,7.76
2019-05-15T14:08:42.344Z,7.60
2019-05-15T14:11:12.437Z,7.47
2019-05-15T14:13:42.221Z,7.44
2019-05-15T14:16:12.685Z,7.54
2019-05-15T14:18:42.427Z,7.55
2019-05-15T14:21:12.230Z,7.44
2019-05-15T14:23:41.991Z,7.80
2019-05-15T14:26:19.040Z,7.68
2019-05-15T14:28:48.481Z,7.59
2019-05-15T14:31:18.425Z,7.37
2019-05-15T14:33:48.859Z,7.49
2019-05-15T14:36:20.217Z,7.45
2019-05-15T14:38:52.651Z,7.56
2019-05-15T14:41:22.400Z,7.42
2019-05-15T14:43:52.193Z,7.46
2019-05-15T14:46:21.962Z,7.32
2019-05-15T14:48:52.408Z,7.43
2019-05-15T14:51:23.614Z,7.50
2019-05-15T14:53:58.228Z,7.56
2019-05-15T14:56:28.445Z,7.45
2019-05-15T14:59:00.040Z,7.34
2019-05-15T15:01:32.726Z,7.30
2019-05-15T15:04:02.489Z,7.14
2019-05-15T15:06:32.584Z,7.24
2019-05-15T15:09:03.472Z,7.17
2019-05-15T15:11:33.228Z,7.16
2019-05-15T15:14:03.354Z,7.23
2019-05-15T15:16:34.573Z,7.14
2019-05-15T15:19:04.375Z,7.13
2019-05-15T15:21:34.348Z,7.12
2019-05-15T15:24:08.183Z,7.11
2019-05-15T15:26:39.188Z,6.98
2019-05-15T15:29:08.682Z,6.83
2019-05-15T15:31:38.985Z,6.90
2019-05-15T15:34:12.772Z,6.93
2019-05-15T15:36:43.293Z,7.05
2019-05-15T15:39:13.029Z,7.01
2019-05-15T15:41:42.902Z,7.05
2019-05-15T15:44:12.669Z,7.19
2019-05-15T15:46:44.053Z,7.04
2019-05-15T15:49:13.771Z,6.83
2019-05-15T15:51:43.760Z,6.68
2019-05-15T15:54:14.100Z,6.63
2019-05-15T15:56:44.266Z,6.62
2019-05-15T15:59:14.304Z,6.51
2019-05-15T16:01:44.256Z,6.51
2019-05-15T16:04:14.089Z,6.52
2019-05-15T16:06:44.114Z,6.45
2019-05-15T16:09:14.661Z,6.61
2019-05-15T16:11:44.422Z,6.61
2019-05-15T16:14:18.034Z,6.56
2019-05-15T16:16:50.177Z,6.44
2019-05-15T16:19:19.918Z,6.40
2019-05-15T16:21:50.769Z,6.45
2019-05-15T16:24:21.910Z,6.55
2019-05-15T16:26:52.334Z,6.64
2019-05-15T16:29:23.124Z,6.70
2019-05-15T16:31:52.924Z,6.75
2019-05-15T16:34:24.853Z,6.82
2019-05-15T16:36:54.676Z,6.82
2019-05-15T16:39:25.628Z,6.86
2019-05-15T16:42:13.607Z,6.91
2019-05-15T16:44:43.689Z,6.91
2019-05-15T16:47:13.323Z,6.92
2019-05-15T16:49:43.424Z,6.93
2019-05-15T16:52:15.189Z,6.89
2019-05-15T16:54:45.532Z,6.84
2019-05-15T16:57:15.691Z,6.75
2019-05-15T16:59:48.085Z,6.72
2019-05-15T17:02:19.254Z,6.70
2019-05-15T17:04:49.021Z,6.62
2019-05-15T17:07:18.634Z,6.52
2019-05-15T17:09:48.612Z,6.40
2019-05-15T17:12:19.451Z,6.29
2019-05-15T17:14:50.232Z,6.26
2019-05-15T17:17:20.010Z,6.16
2019-05-15T17:19:51.920Z,6.17
2019-05-15T17:22:22.421Z,6.06
2019-05-15T17:24:52.332Z,6.06
2019-05-15T17:27:22.989Z,6.03
2019-05-15T17:29:52.920Z,5.96
2019-05-15T17:32:23.136Z,5.93
2019-05-15T17:34:58.832Z,5.99
2019-05-15T17:37:38.887Z,5.89
2019-05-15T17:40:09.413Z,5.90
2019-05-15T17:42:41.788Z,5.93
2019-05-15T17:45:11.709Z,5.93
2019-05-15T17:47:41.995Z,5.99
2019-05-15T17:50:12.510Z,5.88
2019-05-15T17:52:45.865Z,5.80
2019-05-15T17:55:15.682Z,5.69
2019-05-15T17:57:54.537Z,5.66
2019-05-15T18:00:21.207Z,5.59
2019-05-15T18:02:51.289Z,5.56
2019-05-15T18:05:24.924Z,5.53
2019-05-15T18:07:53.229Z,5.50
2019-05-15T18:10:27.955Z,5.45
2019-05-15T18:13:02.053Z,5.40
2019-05-15T18:15:32.086Z,5.39
2019-05-15T18:18:01.979Z,5.35
2019-05-15T18:23:23.654Z,5.27
2019-05-15T18:25:58.388Z,5.25
2019-05-15T18:28:32.214Z,5.22
2019-05-15T18:31:02.141Z,5.20
2019-05-15T18:33:32.739Z,5.09
2019-05-15T18:36:05.109Z,5.07
2019-05-15T18:38:35.032Z,5.09
2019-05-15T18:41:08.905Z,5.16
2019-05-15T18:43:40.403Z,5.25
2019-05-15T18:46:11.415Z,5.28
2019-05-15T18:48:43.492Z,5.21
2019-05-15T18:51:13.309Z,5.11
2019-05-15T18:53:43.652Z,5.04
2019-05-15T18:56:13.758Z,4.97
2019-05-15T18:58:45.241Z,4.97
2019-05-15T19:01:17.816Z,4.97
2019-05-15T19:03:50.407Z,5.00
2019-05-15T19:09:11.886Z,4.95
2019-05-15T19:11:52.979Z,4.96
2019-05-15T19:14:27.978Z,4.96
2019-05-15T19:19:49.524Z,4.93
2019-05-15T19:22:20.489Z,4.91
2019-05-15T19:24:51.329Z,4.93
2019-05-15T19:27:21.932Z,4.96
2019-05-15T19:29:52.151Z,4.94
2019-05-15T19:32:22.274Z,4.95
2019-05-15T19:34:58.723Z,4.93
2019-05-15T19:37:29.395Z,4.92
2019-05-15T19:40:00.695Z,4.91
2019-05-15T19:42:33.607Z,4.89
2019-05-15T19:45:04.140Z,4.93
2019-05-15T19:50:24.030Z,5.18
2019-05-15T19:53:08.319Z,5.19
2019-05-15T19:55:41.783Z,5.08
2019-05-15T19:58:13.361Z,5.04
2019-05-15T20:00:44.565Z,4.97
2019-05-15T20:03:18.314Z,4.97
2019-05-15T20:05:49.425Z,4.97
2019-05-15T20:08:24.497Z,4.95
2019-05-15T20:13:58.370Z,4.95
2019-05-15T20:16:29.441Z,4.96
2019-05-15T20:18:59.445Z,4.94
2019-05-15T20:21:29.721Z,4.96
2019-05-15T20:24:04.476Z,4.94
2019-05-15T20:26:34.774Z,4.93
2019-05-15T20:29:09.075Z,4.93
2019-05-15T20:31:39.533Z,4.91
2019-05-15T20:34:11.692Z,4.91
2019-05-15T20:36:44.474Z,4.89
2019-05-15T20:39:20.851Z,4.88
2019-05-15T20:41:53.479Z,4.80
2019-05-15T20:44:23.277Z,4.77
2019-05-15T20:46:53.183Z,4.71
2019-05-15T20:49:28.722Z,4.74
2019-05-15T20:51:59.561Z,4.76
2019-05-15T20:54:29.648Z,4.80
2019-05-15T20:56:59.367Z,4.85
2019-05-15T20:59:29.223Z,4.78
2019-05-15T21:01:59.510Z,4.78
2019-05-15T21:04:29.715Z,4.77
2019-05-15T21:06:59.541Z,4.74
2019-05-15T21:09:30.697Z,4.74
2019-05-15T21:12:02.150Z,4.74
2019-05-15T21:14:35.037Z,4.74
2019-05-15T21:17:04.775Z,4.76
2019-05-15T21:19:34.798Z,4.89
2019-05-15T21:22:05.015Z,4.83
2019-05-15T21:24:34.708Z,4.75
2019-05-15T21:27:04.743Z,4.73
2019-05-15T21:29:34.615Z,4.73
2019-05-15T21:32:04.338Z,4.76
2019-05-15T21:34:37.999Z,4.79
2019-05-15T21:37:08.125Z,4.81
2019-05-15T21:39:39.186Z,4.88
2019-05-15T21:42:10.772Z,4.80
2019-05-15T21:44:40.600Z,4.79
2019-05-15T21:47:10.470Z,4.77
2019-05-15T21:49:40.229Z,4.82
2019-05-15T21:52:10.042Z,4.83
2019-05-15T21:54:39.785Z,4.84
2019-05-15T21:57:29.161Z,4.82
2019-05-15T21:59:41.081Z,4.81
2019-05-15T22:02:13.782Z,4.80
2019-05-15T22:04:54.780Z,4.76
2019-05-15T22:07:17.822Z,4.77
2019-05-15T22:09:48.701Z,4.68
2019-05-15T22:12:20.089Z,4.68
2019-05-15T22:14:49.935Z,4.70
2019-05-15T22:17:20.089Z,4.70
2019-05-15T22:19:50.850Z,4.72
2019-05-15T22:22:20.767Z,4.72
2019-05-15T22:24:50.551Z,4.73
2019-05-15T22:27:21.329Z,4.71
2019-05-15T22:29:51.916Z,4.70
2019-05-15T22:32:21.862Z,4.76
2019-05-15T22:35:05.833Z,4.68
2019-05-15T22:37:24.818Z,4.66
2019-05-15T22:39:54.567Z,4.67
2019-05-15T22:42:31.285Z,4.66
2019-05-15T22:44:58.216Z,4.68
2019-05-15T22:47:28.558Z,4.65
2019-05-15T22:49:59.017Z,4.65
2019-05-15T22:52:28.938Z,4.64
2019-05-15T22:54:58.717Z,4.65
2019-05-15T22:57:28.458Z,4.63
2019-05-15T22:59:58.810Z,4.63
2019-05-15T23:02:28.559Z,4.63
2019-05-15T23:05:00.431Z,4.65
2019-05-15T23:07:30.409Z,4.67
2019-05-15T23:10:00.159Z,4.63
2019-05-15T23:12:32.518Z,4.65
2019-05-15T23:15:03.025Z,4.69
2019-05-15T23:17:35.207Z,4.70
2019-05-15T23:20:08.664Z,4.72
2019-05-15T23:22:38.791Z,4.72
2019-05-15T23:25:08.746Z,4.74
2019-05-15T23:27:38.606Z,4.72
2019-05-15T23:30:09.121Z,4.72
2019-05-15T23:32:39.496Z,4.70
2019-05-15T23:35:09.659Z,4.70
2019-05-15T23:37:39.905Z,4.76
2019-05-15T23:40:09.753Z,4.69
2019-05-15T23:42:40.053Z,4.60
2019-05-15T23:45:09.908Z,4.57
2019-05-15T23:47:39.689Z,4.58
2019-05-15T23:50:09.926Z,4.56
2019-05-15T23:52:40.183Z,4.56
2019-05-15T23:55:10.144Z,4.53
2019-05-15T23:57:39.857Z,4.55
